首页
METAR-TAF:

METAR-TAF

机场 :

Bradford, 宾夕法尼亚州, 美国

纬度: 41-47-55N, 经度: 078-38-09W, 海拔: 653米

当前天气观测

该预报发布于53分钟前的07:53 UTC
风速5节,风向西
温度 -8°C
湿度 79%
气压 1032 hPa
能見度: 16.1公里
阴天层高于1000英尺

METAR: KBFD 120753Z AUTO 26005KT 10SM OVC010 M08/M11 A3048 RMK AO2 SLP352 T10831111 $

时间: 03:46 (08:46 UTC)

预报

该预报发布于42分钟前的08:04 UTC
预报有效从12日的 08点(UTC)到 13日的 06点(UTC)
风速5节,风向西
能見度: 10公里
多云层高于1000英尺
短暂存在
从 12日的 08点(UTC)到 12日的 09点(UTC)
多云层高于800英尺
从 12日的 0900点(UTC)
风速3节,风向多变
能見度: 10公里
少量云层高于1300英尺
从 12日的 1700点(UTC)
风速8节,风向,有时为15节阵风
能見度: 10公里
多云层高于20000英尺

TAF: KBFD 120804Z 1208/1306 27005KT P6SM BKN010 TEMPO 1208/1209 BKN008 FM120900 VRB03KT P6SM FEW013 FM121700 17008G15KT P6SM BKN200

超过4000个机场的气象观测和天气预报(METAR&TAF报告)。

可查询的气象台以黄色和红色小点在地图上表示。

将鼠标移到小点上方,可查看气象台名称。

然后点击查看天气观测和预报。

如需切换地图:点击带黑十字的绿色按钮放大地图;点击带横线的绿色按钮缩小地图;或者点击绿色箭头查看邻近地区的地图。


METAR-TAF: